• UTC

LHBP 190230Z 24007KT CAVOK 04/01 Q1014 NOSIG        

LHKE 190215Z 21004KT 8000 NSC 03/02 Q1014 NOSIG RMK BLU        

LHPA 190215Z 19006KT 5000 BR BKN040 BKN083 03/02 Q1015 NOSIG RMK WHT        

LHPR 190215Z AUTO 23005KT CAVOK 05/02 Q1015 RMK BLU        

LHSN 190215Z 24006KT 210V280 8000 NSC 02/01 Q1014 NOSIG RMK BLU        

LHUD 190145Z 24002KT 9999 BKN043 01/00 Q1016